Time;durP1;ratioP1;P1;durP2;ratioP2;P2;SDS_P1;SDS_P2;PMS_P1;PMS_P2;Temp;Humidity;BMP_temperature;BMP_pressure;BME280_temperature;BME280_humidity;BME280_pressure;Samples;Min_cycle;Max_cycle;Signal;HPM_P1;HPM_P2
2021/07/21 12:01:40;;;;;;;10.57;8.73;;;27.60;64.40;;;;;;5039267;28;20033;-63
2021/07/21 12:04:06;;;;;;;11.50;8.60;;;27.60;64.00;;;;;;5016710;28;20033;-65
2021/07/21 12:06:32;;;;;;;10.57;8.52;;;27.70;63.90;;;;;;5031264;28;20072;-64
2021/07/21 12:08:58;;;;;;;10.95;9.13;;;27.60;63.70;;;;;;5029291;28;20079;-62
2021/07/21 12:11:25;;;;;;;10.98;8.55;;;27.60;63.50;;;;;;5031627;28;20021;-63
2021/07/21 12:14:02;;;;;;;10.65;8.15;;;27.60;63.60;;;;;;5044591;28;20480;-63
2021/07/21 12:16:37;;;;;;;10.32;7.85;;;27.60;63.20;;;;;;5032462;28;20029;-64
2021/07/21 12:19:05;;;;;;;10.45;7.80;;;27.60;63.20;;;;;;5031563;28;20491;-63
2021/07/21 12:21:33;;;;;;;10.93;7.75;;;27.50;63.30;;;;;;5037734;28;20033;-63
2021/07/21 12:24:04;;;;;;;10.25;8.38;;;27.50;63.40;;;;;;5037403;28;20100;-62
2021/07/21 12:26:42;;;;;;;11.60;8.00;;;27.40;63.20;;;;;;5031222;28;20091;-63
2021/07/21 12:29:08;;;;;;;10.57;7.60;;;27.40;63.40;;;;;;5031389;28;20029;-63
2021/07/21 12:31:34;;;;;;;8.52;6.85;;;27.30;63.30;;;;;;5031496;28;20049;-63
2021/07/21 12:34:11;;;;;;;9.63;6.63;;;27.20;63.40;;;;;;5031150;28;20053;-63
2021/07/21 12:36:40;;;;;;;9.63;7.07;;;27.20;63.50;;;;;;5031335;28;20168;-63
2021/07/21 12:39:06;;;;;;;10.32;7.03;;;27.20;63.80;;;;;;5031238;28;20036;-62
2021/07/21 12:41:31;;;;;;;10.68;7.15;;;27.10;63.30;;;;;;5031539;28;20033;-63
2021/07/21 12:43:57;;;;;;;9.73;7.10;;;27.00;63.40;;;;;;5030956;28;20021;-64
2021/07/21 12:46:23;;;;;;;9.07;7.38;;;26.90;63.90;;;;;;5030854;28;20556;-63
2021/07/21 12:48:54;;;;;;;10.80;8.10;;;26.70;64.40;;;;;;5030952;28;20376;-63
2021/07/21 12:51:20;;;;;;;9.23;7.25;;;26.60;64.40;;;;;;5031207;28;20025;-63
2021/07/21 12:53:46;;;;;;;9.63;7.22;;;26.50;64.80;;;;;;5030808;28;20030;-63
2021/07/21 12:56:13;;;;;;;10.38;7.22;;;26.40;64.90;;;;;;5031019;28;20034;-63
2021/07/21 12:58:39;;;;;;;9.52;7.38;;;26.40;65.10;;;;;;5030788;28;20025;-62
2021/07/21 13:01:04;;;;;;;10.32;7.18;;;26.30;65.20;;;;;;5031302;28;20029;-63
2021/07/21 13:03:30;;;;;;;9.77;6.97;;;26.30;65.50;;;;;;5031083;28;20038;-63
2021/07/21 13:06:00;;;;;;;9.73;7.30;;;26.30;66.50;;;;;;5031102;28;20030;-63
2021/07/21 13:08:28;;;;;;;11.73;8.82;;;26.20;65.80;;;;;;5030685;28;20040;-62
2021/07/21 13:11:12;;;;;;;9.93;7.97;;;26.20;65.60;;;;;;5032515;28;20026;-63
2021/07/21 13:14:01;;;;;;;12.02;8.20;;;26.10;65.80;;;;;;5045561;28;20472;-63
2021/07/21 13:16:32;;;;;;;11.43;8.85;;;26.00;65.90;;;;;;5054884;28;20480;-63
2021/07/21 13:19:09;;;;;;;11.63;8.98;;;26.00;67.10;;;;;;5055031;28;20116;-63
2021/07/21 13:21:38;;;;;;;10.73;8.50;;;25.90;66.70;;;;;;5055216;28;20021;-63
2021/07/21 13:24:20;;;;;;;11.63;8.82;;;25.90;66.90;;;;;;5054985;28;20049;-63
2021/07/21 13:26:52;;;;;;;11.43;8.93;;;25.80;67.00;;;;;;5054829;28;20028;-63
2021/07/21 13:29:18;;;;;;;11.98;8.52;;;25.80;66.90;;;;;;5055119;28;20033;-64
2021/07/21 13:31:49;;;;;;;11.35;8.48;;;25.70;66.70;;;;;;5055251;28;20036;-63
2021/07/21 13:34:28;;;;;;;11.55;8.68;;;25.70;67.20;;;;;;5054621;28;20353;-63
2021/07/21 13:36:55;;;;;;;11.13;8.77;;;25.70;67.60;;;;;;5054385;28;20029;-62
2021/07/21 13:39:24;;;;;;;11.70;8.82;;;25.70;67.50;;;;;;5054527;28;20427;-63
2021/07/21 13:41:57;;;;;;;13.05;9.00;;;25.70;67.20;;;;;;5038046;28;20056;-63
2021/07/21 13:44:27;;;;;;;11.65;9.27;;;25.70;67.20;;;;;;5034275;28;20029;-63
2021/07/21 13:47:00;;;;;;;13.88;9.35;;;25.70;67.00;;;;;;5011033;28;20342;-63
2021/07/21 13:49:27;;;;;;;11.20;8.95;;;25.70;67.20;;;;;;5034402;28;20416;-63
2021/07/21 13:52:02;;;;;;;11.98;9.27;;;25.60;67.60;;;;;;5049596;28;20129;-62
2021/07/21 13:54:30;;;;;;;13.23;9.70;;;25.50;68.20;;;;;;5016467;28;20021;-62
2021/07/21 13:56:59;;;;;;;11.70;9.10;;;25.50;68.60;;;;;;5034251;28;20037;-62
2021/07/21 13:59:25;;;;;;;12.57;9.90;;;25.40;69.10;;;;;;5049511;28;20030;-64
2021/07/21 14:01:53;;;;;;;10.75;8.40;;;25.30;69.50;;;;;;5036422;28;20050;-63
2021/07/21 14:04:19;;;;;;;11.23;9.10;;;25.20;69.80;;;;;;5054057;28;20029;-63
2021/07/21 14:06:46;;;;;;;12.68;9.55;;;25.20;70.40;;;;;;5054032;28;20029;-63
2021/07/21 14:09:14;;;;;;;11.73;9.10;;;25.10;70.20;;;;;;5036017;28;20040;-61
2021/07/21 14:11:40;;;;;;;11.68;9.02;;;25.00;70.10;;;;;;5054131;28;20542;-63
2021/07/21 14:14:07;;;;;;;12.52;8.85;;;25.00;69.80;;;;;;5068696;28;20039;-62
2021/07/21 14:16:34;;;;;;;11.75;9.63;;;25.00;70.10;;;;;;5073608;28;20442;-62
2021/07/21 14:19:00;;;;;;;11.75;9.02;;;25.00;69.90;;;;;;5073831;28;20024;-61
2021/07/21 14:21:26;;;;;;;10.93;8.57;;;25.00;70.20;;;;;;5073328;28;20021;-63
2021/07/21 14:23:52;;;;;;;11.40;8.25;;;24.90;70.60;;;;;;5072924;28;20464;-64
2021/07/21 14:26:18;;;;;;;11.45;8.95;;;24.90;70.90;;;;;;5054158;28;20032;-62
2021/07/21 14:28:44;;;;;;;11.00;8.88;;;24.90;70.90;;;;;;5053265;28;20037;-63
2021/07/21 14:31:13;;;;;;;10.70;8.32;;;24.90;71.00;;;;;;5053835;28;20029;-64
2021/07/21 14:33:39;;;;;;;11.07;8.05;;;24.80;70.60;;;;;;5053479;28;20021;-62
2021/07/21 14:36:05;;;;;;;10.50;7.40;;;24.80;70.70;;;;;;5053184;28;20155;-63
2021/07/21 14:38:31;;;;;;;10.75;7.70;;;24.80;70.70;;;;;;5053049;28;20551;-62
2021/07/21 14:40:57;;;;;;;10.35;7.88;;;24.80;70.70;;;;;;5053231;28;20072;-63
2021/07/21 14:43:22;;;;;;;10.70;8.23;;;24.80;70.80;;;;;;5052872;28;20029;-64
2021/07/21 14:45:48;;;;;;;10.77;8.27;;;24.80;70.60;;;;;;5053252;28;20376;-62
2021/07/21 14:48:14;;;;;;;12.55;9.35;;;24.80;70.60;;;;;;5052200;28;20024;-62
2021/07/21 14:50:40;;;;;;;11.63;8.70;;;24.80;70.40;;;;;;5034391;28;20099;-63
2021/07/21 14:53:05;;;;;;;12.10;9.38;;;24.80;70.20;;;;;;5052679;28;20061;-62
2021/07/21 14:55:31;;;;;;;13.15;9.25;;;24.80;70.50;;;;;;5052902;28;20036;-63
2021/07/21 14:57:57;;;;;;;11.45;9.25;;;24.70;70.40;;;;;;5052611;28;20834;-63
2021/07/21 15:00:23;;;;;;;11.25;9.10;;;24.80;70.60;;;;;;5052443;28;20025;-63
2021/07/21 15:02:49;;;;;;;12.02;9.48;;;24.70;70.90;;;;;;5052588;28;20044;-62
2021/07/21 15:05:15;;;;;;;11.38;8.27;;;24.70;71.10;;;;;;5052792;28;20071;-64
2021/07/21 15:07:41;;;;;;;10.02;7.70;;;24.70;70.10;;;;;;5052942;28;20029;-63
2021/07/21 15:10:08;;;;;;;10.48;7.88;;;24.70;69.60;;;;;;5052885;28;20386;-63
2021/07/21 15:12:34;;;;;;;12.52;7.50;;;24.70;68.70;;;;;;5054774;28;20028;-63
2021/07/21 15:15:06;;;;;;;10.38;7.25;;;24.80;68.20;;;;;;5072991;28;20788;-62
2021/07/21 15:17:35;;;;;;;11.82;8.45;;;24.70;67.70;;;;;;5072610;28;20056;-62
2021/07/21 15:20:03;;;;;;;12.27;10.00;;;24.70;68.30;;;;;;5071275;28;20020;-63
2021/07/21 15:22:29;;;;;;;12.73;9.75;;;24.60;69.50;;;;;;5052742;28;20029;-63
2021/07/21 15:24:55;;;;;;;11.52;8.35;;;24.60;69.90;;;;;;5052601;28;20055;-63
2021/07/21 15:27:20;;;;;;;10.75;7.90;;;24.50;70.10;;;;;;5052557;28;20067;-63
2021/07/21 15:29:46;;;;;;;10.07;7.78;;;24.40;70.20;;;;;;5052432;28;20358;-63
2021/07/21 15:32:13;;;;;;;9.48;7.18;;;24.40;70.60;;;;;;5052040;28;20064;-63
2021/07/21 15:34:40;;;;;;;13.13;10.32;;;24.30;71.00;;;;;;5033847;28;20025;-64
2021/07/21 15:37:08;;;;;;;11.27;9.02;;;24.30;71.30;;;;;;5051273;28;20103;-63
2021/07/21 15:39:34;;;;;;;11.52;8.43;;;24.30;71.30;;;;;;5051317;28;20103;-63
2021/07/21 15:42:00;;;;;;;10.18;8.18;;;24.20;71.30;;;;;;5052372;28;20031;-64
2021/07/21 15:44:25;;;;;;;10.90;7.43;;;24.20;71.50;;;;;;5052772;28;20033;-64
2021/07/21 15:46:51;;;;;;;9.95;7.57;;;24.20;71.70;;;;;;5052443;28;20024;-62
2021/07/21 15:49:19;;;;;;;10.90;7.90;;;24.20;71.50;;;;;;5052278;28;20029;-63
2021/07/21 15:51:46;;;;;;;11.15;7.93;;;24.10;71.00;;;;;;5052316;28;20032;-63
2021/07/21 15:54:12;;;;;;;10.70;7.90;;;24.10;70.30;;;;;;5052293;28;20037;-63
2021/07/21 15:56:49;;;;;;;10.70;7.95;;;24.00;70.30;;;;;;5052182;28;20074;-64
2021/07/21 15:59:14;;;;;;;10.98;7.00;;;24.00;70.40;;;;;;5052152;28;20028;-63
2021/07/21 16:01:40;;;;;;;11.30;8.13;;;24.00;70.30;;;;;;5051889;28;20476;-63
2021/07/21 16:04:06;;;;;;;10.55;7.53;;;24.00;70.10;;;;;;5051888;28;20033;-63
2021/07/21 16:06:33;;;;;;;10.55;7.45;;;24.00;70.30;;;;;;5051814;28;20033;-63
2021/07/21 16:08:59;;;;;;;10.18;7.40;;;23.90;70.70;;;;;;5051965;28;20113;-63
2021/07/21 16:11:24;;;;;;;10.50;7.97;;;23.90;70.20;;;;;;5052412;28;20056;-63
2021/07/21 16:13:52;;;;;;;9.90;7.20;;;23.90;70.20;;;;;;5051731;28;20108;-63
2021/07/21 16:16:18;;;;;;;8.90;6.88;;;23.80;70.00;;;;;;5051876;28;20028;-62
2021/07/21 16:18:43;;;;;;;9.38;6.88;;;23.80;70.00;;;;;;5051635;28;20021;-63
2021/07/21 16:21:10;;;;;;;9.52;6.72;;;23.80;69.80;;;;;;5051960;28;20032;-63
2021/07/21 16:23:37;;;;;;;10.13;7.60;;;23.80;69.60;;;;;;5051829;28;20025;-63
2021/07/21 16:26:04;;;;;;;9.00;6.68;;;23.80;69.60;;;;;;5052071;28;20028;-64
2021/07/21 16:28:30;;;;;;;9.60;6.72;;;23.80;69.50;;;;;;5051859;28;20082;-63
2021/07/21 16:30:56;;;;;;;9.93;6.68;;;23.80;69.40;;;;;;5051720;28;20020;-63
2021/07/21 16:33:22;;;;;;;9.50;7.10;;;23.80;69.40;;;;;;5052166;28;20091;-64
2021/07/21 16:35:49;;;;;;;13.18;10.75;;;23.90;69.00;;;;;;5051760;28;20427;-64
2021/07/21 16:38:15;;;;;;;9.35;7.13;;;23.90;68.40;;;;;;5033254;28;20394;-63
2021/07/21 16:40:42;;;;;;;9.20;7.03;;;23.90;68.40;;;;;;5051610;28;20100;-63
2021/07/21 16:43:08;;;;;;;9.45;6.90;;;23.90;68.00;;;;;;5051164;28;20112;-63
2021/07/21 16:45:34;;;;;;;10.82;7.15;;;23.90;67.60;;;;;;5050433;28;20383;-64
2021/07/21 16:48:00;;;;;;;9.68;6.63;;;23.90;67.00;;;;;;5049812;28;20029;-62
2021/07/21 16:50:26;;;;;;;9.00;6.40;;;23.90;67.10;;;;;;5051298;28;20031;-62
2021/07/21 16:52:52;;;;;;;10.45;6.53;;;24.00;67.10;;;;;;5051166;28;20108;-63
2021/07/21 16:55:21;;;;;;;9.55;6.60;;;23.90;66.80;;;;;;5051103;28;20025;-64
2021/07/21 16:57:47;;;;;;;9.30;6.32;;;23.90;66.70;;;;;;5051102;28;20510;-62
2021/07/21 17:00:30;;;;;;;10.00;6.82;;;23.90;66.40;;;;;;5051407;28;20025;-62
2021/07/21 17:02:57;;;;;;;9.13;6.40;;;23.90;66.00;;;;;;5062003;28;20102;-63
2021/07/21 17:05:25;;;;;;;9.68;6.50;;;23.80;66.10;;;;;;5071103;28;20044;-63
2021/07/21 17:07:51;;;;;;;9.18;6.40;;;23.80;66.20;;;;;;5070911;28;20468;-63
2021/07/21 17:10:18;;;;;;;10.27;6.32;;;23.90;65.90;;;;;;5070977;28;20071;-63
2021/07/21 17:12:44;;;;;;;10.63;6.25;;;23.80;65.10;;;;;;5070830;28;20025;-63
2021/07/21 17:15:14;;;;;;;8.68;6.18;;;23.80;65.30;;;;;;5071201;28;20124;-63
2021/07/21 17:17:40;;;;;;;9.20;5.78;;;23.70;65.50;;;;;;5070952;28;20099;-63
2021/07/21 17:20:22;;;;;;;7.90;5.38;;;23.70;65.70;;;;;;5070922;28;20025;-64
2021/07/21 17:22:48;;;;;;;8.60;5.80;;;23.70;66.00;;;;;;5071004;28;20503;-63
2021/07/21 17:25:13;;;;;;;9.30;6.05;;;23.60;65.90;;;;;;5052751;28;20120;-63
2021/07/21 17:27:39;;;;;;;8.00;6.10;;;23.60;65.90;;;;;;5070969;28;20028;-64
2021/07/21 17:30:08;;;;;;;9.02;6.38;;;23.60;65.80;;;;;;5070809;28;20108;-63
2021/07/21 17:32:35;;;;;;;8.75;6.22;;;23.60;65.60;;;;;;5070954;28;20064;-63
2021/07/21 17:35:01;;;;;;;8.27;5.90;;;23.60;65.60;;;;;;5071090;28;20021;-64
2021/07/21 17:37:27;;;;;;;8.70;6.28;;;23.50;65.70;;;;;;5062761;28;20817;-63
2021/07/21 17:39:53;;;;;;;9.90;5.50;;;23.50;66.50;;;;;;5070851;28;20050;-63
2021/07/21 17:42:19;;;;;;;10.40;6.60;;;23.50;66.40;;;;;;5070717;28;20024;-64
2021/07/21 17:44:44;;;;;;;8.73;6.25;;;23.50;66.10;;;;;;5070929;28;20020;-63
2021/07/21 17:47:10;;;;;;;9.07;5.82;;;23.50;65.80;;;;;;5070490;28;20459;-64
2021/07/21 17:49:36;;;;;;;9.18;5.85;;;23.50;66.10;;;;;;5070545;28;20064;-63
2021/07/21 17:52:02;;;;;;;8.52;6.35;;;23.50;66.40;;;;;;5067491;28;20128;-63
2021/07/21 17:54:28;;;;;;;8.20;5.63;;;23.50;66.60;;;;;;5035574;28;20041;-63
2021/07/21 17:56:54;;;;;;;9.30;5.88;;;23.40;66.60;;;;;;5051090;28;20036;-63
2021/07/21 17:59:20;;;;;;;8.75;6.15;;;23.40;66.60;;;;;;5051431;28;20541;-64
2021/07/21 18:01:46;;;;;;;10.05;6.35;;;23.40;66.80;;;;;;5050324;28;20096;-67
2021/07/21 18:04:11;;;;;;;10.02;6.80;;;23.30;67.20;;;;;;5051851;28;20025;-66
2021/07/21 18:06:37;;;;;;;8.50;5.82;;;23.30;67.30;;;;;;5053027;28;20024;-70
2021/07/21 18:09:04;;;;;;;8.25;5.93;;;23.30;67.20;;;;;;5053251;28;20029;-78
2021/07/21 18:11:30;;;;;;;9.43;6.10;;;23.20;67.20;;;;;;5045127;28;20502;-64
2021/07/21 18:13:55;;;;;;;9.80;6.40;;;23.20;67.40;;;;;;5061143;28;20052;-63
2021/07/21 18:16:21;;;;;;;8.98;5.60;;;23.20;67.10;;;;;;5053807;28;20029;-64
2021/07/21 18:18:47;;;;;;;9.48;5.88;;;23.10;67.20;;;;;;5053889;28;20122;-63
2021/07/21 18:21:17;;;;;;;8.23;5.50;;;23.10;67.30;;;;;;5036086;28;20025;-63
2021/07/21 18:23:43;;;;;;;8.98;5.70;;;23.10;67.40;;;;;;5053789;28;20032;-63
2021/07/21 18:26:08;;;;;;;9.15;6.03;;;23.00;67.40;;;;;;5053572;28;20147;-63
2021/07/21 18:28:35;;;;;;;9.20;6.35;;;23.00;67.40;;;;;;5053642;28;20108;-63
2021/07/21 18:31:01;;;;;;;8.43;5.80;;;23.00;67.30;;;;;;5053896;28;20036;-63
2021/07/21 18:33:30;;;;;;;8.95;6.35;;;23.00;67.40;;;;;;5053389;28;20029;-62
2021/07/21 18:35:56;;;;;;;9.35;6.22;;;23.00;67.30;;;;;;5053322;28;20029;-63
2021/07/21 18:38:25;;;;;;;9.00;5.90;;;22.90;67.30;;;;;;5053717;28;20094;-63
2021/07/21 18:40:51;;;;;;;9.43;6.03;;;22.90;67.20;;;;;;5035554;28;20052;-62
2021/07/21 18:43:18;;;;;;;8.82;6.20;;;22.90;67.10;;;;;;5035208;28;20017;-63
2021/07/21 18:45:48;;;;;;;9.20;5.95;;;22.90;67.10;;;;;;5052807;28;20534;-63
2021/07/21 18:48:14;;;;;;;8.77;5.80;;;22.90;66.80;;;;;;5053187;28;20033;-63
2021/07/21 18:50:44;;;;;;;8.15;5.50;;;22.90;66.90;;;;;;5053603;28;20491;-63
2021/07/21 18:53:10;;;;;;;7.90;5.68;;;22.90;66.90;;;;;;5052976;28;20072;-64
2021/07/21 18:55:35;;;;;;;8.98;5.93;;;22.90;67.00;;;;;;5053232;28;20036;-64
2021/07/21 18:58:02;;;;;;;8.57;5.60;;;22.90;67.20;;;;;;5053071;28;20065;-63
2021/07/21 19:00:28;;;;;;;9.10;6.25;;;22.80;67.20;;;;;;5053266;28;20021;-64
2021/07/21 19:02:54;;;;;;;8.38;5.95;;;22.80;67.40;;;;;;5024246;28;20053;-64
2021/07/21 19:05:20;;;;;;;9.68;6.20;;;22.80;67.40;;;;;;5033025;28;20029;-64
2021/07/21 19:07:45;;;;;;;10.75;5.90;;;22.80;67.70;;;;;;5032967;28;20021;-63
2021/07/21 19:10:11;;;;;;;9.68;5.78;;;22.70;67.70;;;;;;5032338;28;20029;-63
2021/07/21 19:12:43;;;;;;;9.35;6.22;;;22.70;67.50;;;;;;5035195;28;20084;-64
2021/07/21 19:15:14;;;;;;;8.73;6.50;;;22.70;67.80;;;;;;5049845;28;21746;-63
2021/07/21 19:17:41;;;;;;;8.70;6.07;;;22.70;67.70;;;;;;5030657;28;20033;-64
2021/07/21 19:20:07;;;;;;;8.10;5.65;;;22.70;67.80;;;;;;5032717;28;20473;-63
2021/07/21 19:22:34;;;;;;;9.80;6.43;;;22.60;67.80;;;;;;5032061;28;20033;-62
2021/07/21 19:25:00;;;;;;;9.05;6.10;;;22.60;67.80;;;;;;5031952;28;20022;-63
2021/07/21 19:27:25;;;;;;;8.45;5.30;;;22.60;67.80;;;;;;5032149;28;20025;-62
2021/07/21 19:29:51;;;;;;;8.35;5.75;;;22.60;68.10;;;;;;5033018;28;20033;-63
2021/07/21 19:32:17;;;;;;;7.38;5.38;;;22.50;68.20;;;;;;5032534;28;20025;-63
2021/07/21 19:34:42;;;;;;;8.68;5.80;;;22.50;68.30;;;;;;5032962;28;20099;-63
2021/07/21 19:37:08;;;;;;;8.18;5.72;;;22.50;68.40;;;;;;5032783;28;20136;-63
2021/07/21 19:39:34;;;;;;;8.48;5.75;;;22.50;68.40;;;;;;5031244;28;20145;-63
2021/07/21 19:41:59;;;;;;;7.68;5.30;;;22.50;68.40;;;;;;5032479;28;20048;-63
2021/07/21 19:44:25;;;;;;;8.35;5.60;;;22.40;68.40;;;;;;5014588;28;20385;-63
2021/07/21 19:46:50;;;;;;;9.40;6.32;;;22.40;68.40;;;;;;5032359;28;20033;-64
2021/07/21 19:49:16;;;;;;;8.15;5.88;;;22.40;68.50;;;;;;5032406;28;20481;-64
2021/07/21 19:51:43;;;;;;;10.32;5.70;;;22.30;68.60;;;;;;5032262;28;20030;-63
2021/07/21 19:54:10;;;;;;;8.57;5.45;;;22.30;68.80;;;;;;5031937;28;20384;-65
2021/07/21 19:56:36;;;;;;;7.93;5.40;;;22.30;68.90;;;;;;5030712;28;20030;-64
2021/07/21 19:59:03;;;;;;;8.02;5.22;;;22.30;69.10;;;;;;5032081;28;20033;-63
2021/07/21 20:01:29;;;;;;;8.30;5.57;;;22.20;68.90;;;;;;5032029;28;20146;-62
2021/07/21 20:03:55;;;;;;;8.23;5.22;;;22.20;68.90;;;;;;5031911;28;20057;-63
2021/07/21 20:06:21;;;;;;;9.23;5.60;;;22.20;68.70;;;;;;5031848;28;20029;-63
2021/07/21 20:08:47;;;;;;;8.43;5.70;;;22.30;68.60;;;;;;5032023;28;20101;-63
2021/07/21 20:11:13;;;;;;;8.38;5.50;;;22.20;68.60;;;;;;5031882;28;20040;-64
2021/07/21 20:13:42;;;;;;;7.90;5.28;;;22.20;68.90;;;;;;5037110;28;20028;-63
2021/07/21 20:16:10;;;;;;;9.13;5.88;;;22.30;69.00;;;;;;5051815;28;20025;-62
2021/07/21 20:18:35;;;;;;;8.85;5.65;;;22.30;69.10;;;;;;5051631;28;20024;-62
2021/07/21 20:21:03;;;;;;;8.38;5.28;;;22.30;69.20;;;;;;5051626;28;20024;-63
2021/07/21 20:23:29;;;;;;;8.93;5.53;;;22.30;69.10;;;;;;5051656;28;20024;-63
2021/07/21 20:25:54;;;;;;;8.27;6.10;;;22.30;69.30;;;;;;5051717;28;20032;-63
2021/07/21 20:28:20;;;;;;;8.27;5.65;;;22.30;69.30;;;;;;5051621;28;20036;-63
2021/07/21 20:30:46;;;;;;;9.20;5.55;;;22.30;69.30;;;;;;5051660;28;20024;-62
2021/07/21 20:33:12;;;;;;;8.50;5.40;;;22.30;69.40;;;;;;5051637;28;20518;-63
2021/07/21 20:35:39;;;;;;;8.70;5.90;;;22.30;69.40;;;;;;5051510;28;20025;-63
2021/07/21 20:38:05;;;;;;;8.02;5.40;;;22.30;69.60;;;;;;5051499;28;20383;-62
2021/07/21 20:40:35;;;;;;;10.27;6.00;;;22.30;69.90;;;;;;5051814;28;20017;-63
2021/07/21 20:43:02;;;;;;;9.07;5.75;;;22.20;69.50;;;;;;5051501;28;20553;-63
2021/07/21 20:45:29;;;;;;;8.65;5.90;;;22.30;69.60;;;;;;5051476;28;20365;-62
2021/07/21 20:47:55;;;;;;;8.38;5.20;;;22.30;69.70;;;;;;5051396;28;20526;-63
2021/07/21 20:50:21;;;;;;;9.10;6.00;;;22.20;69.80;;;;;;5051549;28;20025;-62
2021/07/21 20:52:47;;;;;;;8.23;5.57;;;22.20;70.10;;;;;;5051582;28;20032;-62
2021/07/21 20:55:13;;;;;;;7.95;5.22;;;22.20;70.20;;;;;;5052028;28;20752;-63
2021/07/21 20:57:39;;;;;;;8.38;5.10;;;22.20;70.20;;;;;;5051676;28;20029;-63
2021/07/21 21:00:08;;;;;;;7.85;5.07;;;22.20;70.30;;;;;;5051363;28;20029;-64
2021/07/21 21:02:34;;;;;;;7.63;5.20;;;22.20;70.60;;;;;;5059459;28;20127;-62
2021/07/21 21:05:00;;;;;;;8.20;5.10;;;22.20;70.70;;;;;;5071694;28;20170;-64
2021/07/21 21:07:25;;;;;;;7.65;5.35;;;22.20;70.60;;;;;;5066191;28;20037;-62
2021/07/21 21:09:52;;;;;;;7.97;5.10;;;22.10;70.60;;;;;;5051265;28;20040;-63
2021/07/21 21:12:18;;;;;;;9.38;5.88;;;22.10;70.70;;;;;;5051285;28;20053;-64
2021/07/21 21:14:44;;;;;;;7.57;5.30;;;22.10;70.80;;;;;;5070898;28;20060;-63
2021/07/21 21:17:10;;;;;;;8.07;5.07;;;22.10;70.70;;;;;;5070778;28;20052;-63
2021/07/21 21:19:36;;;;;;;8.13;5.40;;;22.00;70.70;;;;;;5071213;28;20027;-62
2021/07/21 21:22:03;;;;;;;7.85;5.28;;;22.00;70.80;;;;;;5071233;28;20025;-63
2021/07/21 21:24:29;;;;;;;8.75;5.50;;;22.10;70.90;;;;;;5071445;28;20021;-62
2021/07/21 21:26:55;;;;;;;7.90;5.20;;;22.00;70.80;;;;;;5070940;28;20103;-62
2021/07/21 21:29:20;;;;;;;8.27;5.50;;;22.00;71.00;;;;;;5070983;28;20032;-63
2021/07/21 21:31:46;;;;;;;7.32;5.20;;;22.10;70.60;;;;;;5072385;28;20514;-63
2021/07/21 21:34:14;;;;;;;8.07;5.53;;;22.00;70.40;;;;;;5074520;28;20027;-63
2021/07/21 21:36:40;;;;;;;8.20;5.70;;;22.00;70.50;;;;;;5074981;28;20028;-62
2021/07/21 21:39:07;;;;;;;8.20;5.22;;;22.00;70.60;;;;;;5074752;28;20067;-61
2021/07/21 21:41:33;;;;;;;7.28;5.07;;;22.00;70.60;;;;;;5074919;28;20023;-62
2021/07/21 21:43:59;;;;;;;7.93;5.30;;;22.00;70.70;;;;;;5074470;28;20438;-63
2021/07/21 21:46:24;;;;;;;8.43;5.88;;;22.00;70.60;;;;;;5074579;28;20104;-62
2021/07/21 21:48:50;;;;;;;7.15;5.20;;;22.00;70.50;;;;;;5056610;28;20024;-62
2021/07/21 21:51:16;;;;;;;9.70;5.70;;;22.00;70.50;;;;;;5074472;28;20437;-62
2021/07/21 21:53:41;;;;;;;8.15;5.57;;;22.00;70.60;;;;;;5074746;28;20122;-63
2021/07/21 21:56:07;;;;;;;7.80;5.50;;;22.00;70.40;;;;;;5074659;28;20472;-63
2021/07/21 21:58:32;;;;;;;7.82;5.00;;;22.00;70.20;;;;;;5074333;28;20028;-63
2021/07/21 22:00:58;;;;;;;8.80;5.28;;;22.00;70.30;;;;;;5056540;28;20393;-64
2021/07/21 22:03:24;;;;;;;7.38;5.07;;;22.00;70.40;;;;;;5074086;28;20506;-63
2021/07/21 22:05:50;;;;;;;7.70;5.05;;;21.90;70.30;;;;;;5074305;28;20033;-64
2021/07/21 22:08:16;;;;;;;7.05;4.80;;;21.90;70.20;;;;;;5074078;28;20024;-62
2021/07/21 22:10:43;;;;;;;9.45;5.00;;;21.90;70.50;;;;;;5074131;28;20021;-63
2021/07/21 22:13:12;;;;;;;7.78;5.13;;;21.90;70.70;;;;;;5068400;28;20057;-65
2021/07/21 22:15:45;;;;;;;8.90;4.60;;;21.90;70.80;;;;;;5074112;28;20463;-62
2021/07/21 22:18:12;;;;;;;8.20;4.72;;;21.80;70.80;;;;;;5074014;28;20434;-62
2021/07/21 22:20:39;;;;;;;7.22;4.88;;;21.80;71.10;;;;;;5074173;28;20017;-62
2021/07/21 22:23:12;;;;;;;6.80;4.57;;;21.80;71.30;;;;;;5074116;28;20029;-62
2021/07/21 22:25:41;;;;;;;6.57;4.63;;;21.70;71.30;;;;;;5074042;28;20357;-62
2021/07/21 22:28:11;;;;;;;7.53;5.15;;;21.70;71.50;;;;;;5074051;28;20017;-63
2021/07/21 22:31:01;;;;;;;7.28;5.22;;;21.70;71.50;;;;;;5073874;28;20025;-63
2021/07/21 22:33:37;;;;;;;7.20;4.93;;;21.60;71.70;;;;;;5056010;28;20383;-63
2021/07/21 22:36:10;;;;;;;7.15;5.10;;;21.60;71.90;;;;;;5073810;28;20028;-62
2021/07/21 22:38:36;;;;;;;7.70;4.93;;;21.50;72.10;;;;;;5073606;28;20425;-62
2021/07/21 22:41:03;;;;;;;7.25;4.68;;;21.50;72.00;;;;;;5073466;28;20044;-62
2021/07/21 22:43:31;;;;;;;8.23;4.40;;;21.40;72.10;;;;;;5072538;28;20024;-62
2021/07/21 22:45:57;;;;;;;7.50;4.53;;;21.40;72.10;;;;;;5056057;28;20460;-62
2021/07/21 22:48:22;;;;;;;6.85;4.47;;;21.40;72.10;;;;;;5073473;28;20039;-63
2021/07/21 22:50:48;;;;;;;6.97;4.57;;;21.30;72.70;;;;;;5073546;28;20021;-63
2021/07/21 22:53:15;;;;;;;8.15;4.18;;;21.30;72.30;;;;;;5073270;28;20111;-63
2021/07/21 22:55:40;;;;;;;7.25;4.65;;;21.30;72.30;;;;;;5073512;28;20055;-62
2021/07/21 22:58:08;;;;;;;6.70;4.32;;;21.30;72.50;;;;;;5073197;28;20472;-62
2021/07/21 23:01:04;;;;;;;6.07;3.97;;;21.30;72.50;;;;;;5073273;28;20151;-62
2021/07/21 23:04:09;;;;;;;6.72;4.32;;;21.30;72.70;;;;;;5072950;28;20120;-62
2021/07/21 23:07:12;;;;;;;6.25;4.03;;;21.20;72.50;;;;;;5073177;28;20020;-62
2021/07/21 23:10:15;;;;;;;6.30;4.13;;;21.20;72.60;;;;;;5073205;28;20036;-62
2021/07/21 23:13:18;;;;;;;6.90;4.10;;;21.20;72.70;;;;;;5072827;28;20028;-63
2021/07/21 23:15:57;;;;;;;;;;;21.10;72.70;;;;;;5067524;28;20046;-62
2021/07/21 23:18:23;;;;;;;6.05;3.78;;;21.00;72.70;;;;;;5072796;28;19951;-63
2021/07/21 23:20:51;;;;;;;5.80;3.70;;;21.00;72.70;;;;;;5073039;28;20062;-63
2021/07/21 23:23:18;;;;;;;5.88;3.72;;;20.90;72.90;;;;;;5072882;28;20049;-62
2021/07/21 23:25:45;;;;;;;6.43;3.67;;;20.90;72.90;;;;;;5072693;28;20025;-63
2021/07/21 23:28:11;;;;;;;6.20;3.83;;;20.90;73.00;;;;;;5072505;28;20020;-63
2021/07/21 23:30:40;;;;;;;6.05;3.90;;;20.80;73.10;;;;;;5072814;28;20365;-64
2021/07/21 23:33:06;;;;;;;6.53;4.07;;;20.80;73.10;;;;;;5072706;28;20017;-62
2021/07/21 23:35:35;;;;;;;7.18;4.20;;;20.80;73.20;;;;;;5072372;28;20103;-62
2021/07/21 23:38:01;;;;;;;7.00;4.50;;;20.80;73.20;;;;;;5072417;28;20104;-63
2021/07/21 23:40:27;;;;;;;7.95;4.10;;;20.80;73.10;;;;;;5054701;28;20016;-62
2021/07/21 23:42:53;;;;;;;6.65;4.13;;;20.80;73.10;;;;;;5072327;28;20463;-62
2021/07/21 23:45:18;;;;;;;7.15;3.80;;;20.90;73.10;;;;;;5072508;28;20043;-62
2021/07/21 23:47:44;;;;;;;5.80;3.70;;;20.90;73.60;;;;;;5072283;28;20104;-61
2021/07/21 23:50:12;;;;;;;7.97;4.05;;;20.90;72.60;;;;;;5072180;28;20468;-62
2021/07/21 23:52:38;;;;;;;6.68;4.10;;;21.00;72.60;;;;;;5072290;28;20021;-63
2021/07/21 23:55:06;;;;;;;6.57;4.30;;;21.00;72.50;;;;;;5071603;28;20036;-62
2021/07/21 23:57:35;;;;;;;7.20;3.90;;;21.00;72.10;;;;;;5072099;28;20028;-63
